Barfleur — FNIE — position and weather

sailwx.info

Track history (hours):
 
Tides and Currents Weather Stations Pressure Air Temp Water Temp Dewpoint Dewpoint Depression Visibility Wind Speed Wind Dir Waves Ship Positions

Barfleur

Operator: Brittany Ferries

Last reported at 2016-Jul-27 07:33 UTC. Time now 2016-Jul-27 07:51 UTC.
Position N 50°42' W 001°59'.

Length 158 m; draft 5 m.

Type: Passenger vessel. MMSI: 227289000.

Date/timePositionNaut miles runAvg speedWind from/ knotsBaromVisibWave heightAir tempDewpointWater temp
2016-Jul-27 07:33N 50°42' W 001°59'0 0.0
2016-Jul-27 06:33N 50°42' W 001°59'0 0.0
2016-Jul-27 05:33N 50°42' W 001°59'0 0.0
2016-Jul-27 04:33N 50°42' W 001°59'0 0.0
2016-Jul-27 03:33N 50°42' W 001°59'0 0.0
2016-Jul-27 02:33N 50°42' W 001°59'0 0.0
2016-Jul-27 01:33N 50°42' W 001°59'0 0.0
2016-Jul-27 00:33N 50°42' W 001°59'0 0.0
2016-Jul-26 23:33N 50°42' W 001°59'0 0.0
2016-Jul-26 22:33N 50°42' W 001°59'0 0.0
2016-Jul-26 21:33N 50°42' W 001°59'0 0.2
2016-Jul-26 20:33N 50°42' W 001°59'1212.1
2016-Jul-26 19:33N 50°31' W 001°52'4 0.3
2016-Jul-26 08:34N 50°35' W 001°52'9 9.1
2016-Jul-26 07:34N 50°42' W 001°59'0 0.0
2016-Jul-26 06:34N 50°42' W 001°59'0 0.0
2016-Jul-26 05:34N 50°42' W 001°59'0 0.0
2016-Jul-26 04:34N 50°42' W 001°59'0 0.0
2016-Jul-26 03:34N 50°42' W 001°59'0 0.0
2016-Jul-26 02:34N 50°42' W 001°59'0 0.0
2016-Jul-26 01:34N 50°42' W 001°59'0 0.0
2016-Jul-26 00:34N 50°42' W 001°59'0 0.0
2016-Jul-25 23:34N 50°42' W 001°59'0 0.0
2016-Jul-25 22:34N 50°42' W 001°59'0 0.0
2016-Jul-25 21:33N 50°42' W 001°59'0 0.3
2016-Jul-25 20:34N 50°42' W 001°59'8 0.7
2016-Jul-25 08:33N 50°35' W 001°54'8 8.0
2016-Jul-25 07:34N 50°42' W 001°59'0 0.0
2016-Jul-25 06:34N 50°42' W 001°59'0 0.0
2016-Jul-25 05:34N 50°42' W 001°59'0 0.0
2016-Jul-25 04:33N 50°42' W 001°59'0 0.0
2016-Jul-25 03:33N 50°42' W 001°59'0 0.0
2016-Jul-25 02:34N 50°42' W 001°59'0 0.0
2016-Jul-25 01:34N 50°42' W 001°59'0 0.0
2016-Jul-25 00:34N 50°42' W 001°59'0 0.0
2016-Jul-24 23:34N 50°42' W 001°59'0 0.0
2016-Jul-24 22:34N 50°42' W 001°59'0 0.0
2016-Jul-24 21:34N 50°42' W 001°59'0 0.0
2016-Jul-24 20:34N 50°42' W 001°59'1211.8
2016-Jul-24 19:33N 50°32' W 001°52'3 0.2
2016-Jul-24 08:33N 50°34' W 001°53'9 9.5
2016-Jul-24 07:33N 50°42' W 001°59'0 0.0
2016-Jul-24 06:33N 50°42' W 001°59'0 0.0
2016-Jul-24 05:33N 50°42' W 001°59'0 0.0
2016-Jul-24 04:33N 50°42' W 001°59'0 0.0
2016-Jul-24 03:33N 50°42' W 001°59'0 0.0
2016-Jul-24 02:33N 50°42' W 001°59'0 0.0
2016-Jul-24 01:33N 50°42' W 001°59'0 0.0
2016-Jul-24 00:33N 50°42' W 001°59'0 0.0
2016-Jul-23 23:33N 50°42' W 001°59'0 0.0
2016-Jul-23 22:33N 50°42' W 001°59'0 0.0
2016-Jul-23 21:33N 50°42' W 001°59'0 0.0
2016-Jul-23 20:33N 50°42' W 001°59'1111.4
2016-Jul-23 19:33N 50°32' W 001°51'2418.6
2016-Jul-23 18:17N 50°09' W 001°47'25 2.5
2016-Jul-23 08:33N 50°33' W 001°52'1010.5
2016-Jul-23 07:33N 50°42' W 001°59'0 0.0
2016-Jul-23 06:33N 50°42' W 001°59'0 0.0
2016-Jul-23 04:34N 50°42' W 001°59'0 0.0
2016-Jul-23 03:33N 50°42' W 001°59'0 0.0
2016-Jul-23 02:33N 50°42' W 001°59'0 0.0
2016-Jul-23 01:33N 50°42' W 001°59'0 0.0
2016-Jul-23 00:33N 50°42' W 001°59'0 0.0
2016-Jul-22 23:33N 50°42' W 001°59'0 0.0
2016-Jul-22 22:33N 50°42' W 001°59'0 0.0
2016-Jul-22 21:33N 50°42' W 001°59'0 0.1
2016-Jul-22 20:33N 50°42' W 001°59'1313.2
2016-Jul-22 19:33N 50°30' W 001°51'2618.5
2016-Jul-22 18:08N 50°05' W 001°43'25 3.8
2016-Jul-22 11:30N 49°40' W 001°36'1818.3
2016-Jul-22 10:32N 49°57' W 001°40'2018.7
2016-Jul-22 09:28N 50°17' W 001°47'1718.3
2016-Jul-22 08:33N 50°33' W 001°52'1010.3
2016-Jul-22 07:33N 50°42' W 001°59'0 0.0
2016-Jul-22 05:33N 50°42' W 001°59'0 0.0
2016-Jul-22 04:33N 50°42' W 001°59'0 0.0
2016-Jul-22 03:33N 50°42' W 001°59'0 0.0
2016-Jul-22 02:33N 50°42' W 001°59'0 0.0
2016-Jul-22 01:33N 50°42' W 001°59'0 0.0
2016-Jul-22 00:33N 50°42' W 001°59'0 0.0
2016-Jul-21 23:33N 50°42' W 001°59'0 0.0
2016-Jul-21 22:33N 50°42' W 001°59'0 0.0
2016-Jul-21 21:33N 50°42' W 001°59'0 0.1
2016-Jul-21 20:34N 50°42' W 001°59'1313.4
2016-Jul-21 19:33N 50°30' W 001°51'1818.0
2016-Jul-21 18:33N 50°12' W 001°45'1818.4
2016-Jul-21 17:33N 49°54' W 001°43'38 4.2
2016-Jul-21 08:32N 50°31' W 001°51'1212.4
2016-Jul-21 07:33N 50°42' W 001°59'0 0.0
2016-Jul-21 06:33N 50°42' W 001°59'0 0.0
2016-Jul-21 05:33N 50°42' W 001°59'0 0.0
2016-Jul-21 04:33N 50°42' W 001°59'0 0.0
2016-Jul-21 03:33N 50°42' W 001°59'0 0.0
2016-Jul-21 02:33N 50°42' W 001°59'0 0.0
2016-Jul-21 01:33N 50°42' W 001°59'0 0.0
2016-Jul-21 00:33N 50°42' W 001°59'0 0.0
2016-Jul-20 23:34N 50°42' W 001°59'0 0.0
2016-Jul-20 22:33N 50°42' W 001°59'0 0.0
2016-Jul-20 21:33N 50°42' W 001°59'1 0.8
2016-Jul-20 20:33N 50°42' W 001°58'1615.0
2016-Jul-20 19:31N 50°27' W 001°52'3518.0
2016-Jul-20 17:33N 49°52' W 001°43'4 0.5
2016-Jul-20 10:32N 49°55' W 001°39'1818.5
2016-Jul-20 09:33N 50°13' W 001°47'1817.4
2016-Jul-20 08:33N 50°30' W 001°50'1313.4
2016-Jul-20 07:33N 50°42' W 001°58'1 0.7
2016-Jul-20 06:34N 50°42' W 001°59'0 0.0
2016-Jul-20 05:33N 50°42' W 001°59'0 0.0
2016-Jul-20 04:33N 50°42' W 001°59'0 0.0
2016-Jul-20 03:33N 50°42' W 001°59'0 0.0
2016-Jul-20 02:33N 50°42' W 001°59'0 0.0
2016-Jul-20 01:33N 50°42' W 001°59'0 0.0
2016-Jul-20 00:33N 50°42' W 001°59'0 0.0
2016-Jul-19 23:33N 50°42' W 001°59'0 0.0
2016-Jul-19 22:33N 50°42' W 001°59'0 0.0
2016-Jul-19 21:33N 50°42' W 001°59'0 0.0
2016-Jul-19 20:34N 50°42' W 001°59'1312.6
2016-Jul-19 19:34N 50°31' W 001°51'2018.0
2016-Jul-19 18:28N 50°12' W 001°47'33 4.6
2016-Jul-19 11:21N 49°40' W 001°36'1315.9
2016-Jul-19 10:33N 49°52' W 001°39'1818.2
2016-Jul-19 09:33N 50°10' W 001°45'1918.4
2016-Jul-19 08:30N 50°29' W 001°51'1414.5
2016-Jul-19 07:34N 50°42' W 001°58'1 0.3
2016-Jul-19 04:33N 50°42' W 001°59'0 0.0
2016-Jul-19 03:33N 50°42' W 001°59'0 0.0
2016-Jul-19 02:34N 50°42' W 001°59'0 0.0
2016-Jul-19 01:34N 50°42' W 001°59'0 0.0
2016-Jul-19 00:34N 50°42' W 001°59'0 0.0
2016-Jul-18 23:34N 50°42' W 001°59'0 0.0
2016-Jul-18 22:34N 50°42' W 001°59'0 0.0
2016-Jul-18 21:34N 50°42' W 001°59'0 0.0
2016-Jul-18 20:34N 50°42' W 001°59'1211.8
2016-Jul-18 19:34N 50°32' W 001°52'1818.0
2016-Jul-18 18:33N 50°14' W 001°48'1818.0
2016-Jul-18 17:34N 49°56' W 001°43'15 2.3
2016-Jul-18 11:12N 49°42' W 001°40'1218.0
2016-Jul-18 10:33N 49°53' W 001°44'2418.1
2016-Jul-18 09:12N 50°17' W 001°49'1418.5
2016-Jul-18 08:27N 50°31' W 001°52'1213.7
2016-Jul-18 07:33N 50°42' W 001°59'0 0.3
2016-Jul-18 06:33N 50°42' W 001°59'0 0.0
2016-Jul-18 05:33N 50°42' W 001°59'0 0.0
2016-Jul-18 04:33N 50°42' W 001°59'0 0.0
2016-Jul-18 03:33N 50°42' W 001°59'0 0.0
2016-Jul-18 02:33N 50°42' W 001°59'0 0.0
2016-Jul-18 01:33N 50°42' W 001°59'0 0.0
2016-Jul-18 00:33N 50°42' W 001°59'0 0.0
2016-Jul-17 23:33N 50°42' W 001°59'0 0.0
2016-Jul-17 22:33N 50°42' W 001°59'0 0.0
2016-Jul-17 21:33N 50°42' W 001°59'0 0.3
2016-Jul-17 20:33N 50°42' W 001°59'1514.3
2016-Jul-17 19:31N 50°28' W 001°51'1718.0
2016-Jul-17 18:33N 50°11' W 001°48'2017.7
2016-Jul-17 17:25N 49°51' W 001°42'38 4.3
2016-Jul-17 08:24N 50°29' W 001°52'1315.4
2016-Jul-17 07:34N 50°42' W 001°57'  
Track history (hours):
 
Tides and Currents Weather Stations Pressure Air Temp Water Temp Dewpoint Dewpoint Depression Visibility Wind Speed Wind Dir Waves Ship Positions

Barfleur

Operator: Brittany Ferries

Last reported at 2016-Jul-27 07:33 UTC. Time now 2016-Jul-27 07:51 UTC.
Position N 50°42' W 001°59'.

Length 158 m; draft 5 m.

Type: Passenger vessel. MMSI: 227289000.

Date/timePositionNaut miles runAvg speedWind from/ knotsBaromVisibWave heightAir tempDewpointWater temp
2016-Jul-27 07:33N 50°42' W 001°59'0 0.0
2016-Jul-27 06:33N 50°42' W 001°59'0 0.0
2016-Jul-27 05:33N 50°42' W 001°59'0 0.0
2016-Jul-27 04:33N 50°42' W 001°59'0 0.0
2016-Jul-27 03:33N 50°42' W 001°59'0 0.0
2016-Jul-27 02:33N 50°42' W 001°59'0 0.0
2016-Jul-27 01:33N 50°42' W 001°59'0 0.0
2016-Jul-27 00:33N 50°42' W 001°59'0 0.0
2016-Jul-26 23:33N 50°42' W 001°59'0 0.0
2016-Jul-26 22:33N 50°42' W 001°59'0 0.0
2016-Jul-26 21:33N 50°42' W 001°59'0 0.2
2016-Jul-26 20:33N 50°42' W 001°59'1212.1
2016-Jul-26 19:33N 50°31' W 001°52'4 0.3
2016-Jul-26 08:34N 50°35' W 001°52'9 9.1
2016-Jul-26 07:34N 50°42' W 001°59'0 0.0
2016-Jul-26 06:34N 50°42' W 001°59'0 0.0
2016-Jul-26 05:34N 50°42' W 001°59'0 0.0
2016-Jul-26 04:34N 50°42' W 001°59'0 0.0
2016-Jul-26 03:34N 50°42' W 001°59'0 0.0
2016-Jul-26 02:34N 50°42' W 001°59'0 0.0
2016-Jul-26 01:34N 50°42' W 001°59'0 0.0
2016-Jul-26 00:34N 50°42' W 001°59'0 0.0
2016-Jul-25 23:34N 50°42' W 001°59'0 0.0
2016-Jul-25 22:34N 50°42' W 001°59'0 0.0
2016-Jul-25 21:33N 50°42' W 001°59'0 0.3
2016-Jul-25 20:34N 50°42' W 001°59'8 0.7
2016-Jul-25 08:33N 50°35' W 001°54'8 8.0
2016-Jul-25 07:34N 50°42' W 001°59'0 0.0
2016-Jul-25 06:34N 50°42' W 001°59'0 0.0
2016-Jul-25 05:34N 50°42' W 001°59'0 0.0
2016-Jul-25 04:33N 50°42' W 001°59'0 0.0
2016-Jul-25 03:33N 50°42' W 001°59'0 0.0
2016-Jul-25 02:34N 50°42' W 001°59'0 0.0
2016-Jul-25 01:34N 50°42' W 001°59'0 0.0
2016-Jul-25 00:34N 50°42' W 001°59'0 0.0
2016-Jul-24 23:34N 50°42' W 001°59'0 0.0
2016-Jul-24 22:34N 50°42' W 001°59'0 0.0
2016-Jul-24 21:34N 50°42' W 001°59'0 0.0
2016-Jul-24 20:34N 50°42' W 001°59'1211.8
2016-Jul-24 19:33N 50°32' W 001°52'3 0.2
2016-Jul-24 08:33N 50°34' W 001°53'9 9.5
2016-Jul-24 07:33N 50°42' W 001°59'0 0.0
2016-Jul-24 06:33N 50°42' W 001°59'0 0.0
2016-Jul-24 05:33N 50°42' W 001°59'0 0.0
2016-Jul-24 04:33N 50°42' W 001°59'0 0.0
2016-Jul-24 03:33N 50°42' W 001°59'0 0.0
2016-Jul-24 02:33N 50°42' W 001°59'0 0.0
2016-Jul-24 01:33N 50°42' W 001°59'0 0.0
2016-Jul-24 00:33N 50°42' W 001°59'0 0.0
2016-Jul-23 23:33N 50°42' W 001°59'0 0.0
2016-Jul-23 22:33N 50°42' W 001°59'0 0.0
2016-Jul-23 21:33N 50°42' W 001°59'0 0.0
2016-Jul-23 20:33N 50°42' W 001°59'1111.4
2016-Jul-23 19:33N 50°32' W 001°51'2418.6
2016-Jul-23 18:17N 50°09' W 001°47'25 2.5
2016-Jul-23 08:33N 50°33' W 001°52'1010.5
2016-Jul-23 07:33N 50°42' W 001°59'0 0.0
2016-Jul-23 06:33N 50°42' W 001°59'0 0.0
2016-Jul-23 04:34N 50°42' W 001°59'0 0.0
2016-Jul-23 03:33N 50°42' W 001°59'0 0.0
2016-Jul-23 02:33N 50°42' W 001°59'0 0.0
2016-Jul-23 01:33N 50°42' W 001°59'0 0.0
2016-Jul-23 00:33N 50°42' W 001°59'0 0.0
2016-Jul-22 23:33N 50°42' W 001°59'0 0.0
2016-Jul-22 22:33N 50°42' W 001°59'0 0.0
2016-Jul-22 21:33N 50°42' W 001°59'0 0.1
2016-Jul-22 20:33N 50°42' W 001°59'1313.2
2016-Jul-22 19:33N 50°30' W 001°51'2618.5
2016-Jul-22 18:08N 50°05' W 001°43'25 3.8
2016-Jul-22 11:30N 49°40' W 001°36'1818.3
2016-Jul-22 10:32N 49°57' W 001°40'2018.7
2016-Jul-22 09:28N 50°17' W 001°47'1718.3
2016-Jul-22 08:33N 50°33' W 001°52'1010.3
2016-Jul-22 07:33N 50°42' W 001°59'0 0.0
2016-Jul-22 05:33N 50°42' W 001°59'0 0.0
2016-Jul-22 04:33N 50°42' W 001°59'0 0.0
2016-Jul-22 03:33N 50°42' W 001°59'0 0.0
2016-Jul-22 02:33N 50°42' W 001°59'0 0.0
2016-Jul-22 01:33N 50°42' W 001°59'0 0.0
2016-Jul-22 00:33N 50°42' W 001°59'0 0.0
2016-Jul-21 23:33N 50°42' W 001°59'0 0.0
2016-Jul-21 22:33N 50°42' W 001°59'0 0.0
2016-Jul-21 21:33N 50°42' W 001°59'0 0.1
2016-Jul-21 20:34N 50°42' W 001°59'1313.4
2016-Jul-21 19:33N 50°30' W 001°51'1818.0
2016-Jul-21 18:33N 50°12' W 001°45'1818.4
2016-Jul-21 17:33N 49°54' W 001°43'38 4.2
2016-Jul-21 08:32N 50°31' W 001°51'1212.4
2016-Jul-21 07:33N 50°42' W 001°59'0 0.0
2016-Jul-21 06:33N 50°42' W 001°59'0 0.0
2016-Jul-21 05:33N 50°42' W 001°59'0 0.0
2016-Jul-21 04:33N 50°42' W 001°59'0 0.0
2016-Jul-21 03:33N 50°42' W 001°59'0 0.0
2016-Jul-21 02:33N 50°42' W 001°59'0 0.0
2016-Jul-21 01:33N 50°42' W 001°59'0 0.0
2016-Jul-21 00:33N 50°42' W 001°59'0 0.0
2016-Jul-20 23:34N 50°42' W 001°59'0 0.0
2016-Jul-20 22:33N 50°42' W 001°59'0 0.0
2016-Jul-20 21:33N 50°42' W 001°59'1 0.8
2016-Jul-20 20:33N 50°42' W 001°58'1615.0
2016-Jul-20 19:31N 50°27' W 001°52'3518.0
2016-Jul-20 17:33N 49°52' W 001°43'4 0.5
2016-Jul-20 10:32N 49°55' W 001°39'1818.5
2016-Jul-20 09:33N 50°13' W 001°47'1817.4
2016-Jul-20 08:33N 50°30' W 001°50'1313.4
2016-Jul-20 07:33N 50°42' W 001°58'1 0.7
2016-Jul-20 06:34N 50°42' W 001°59'0 0.0
2016-Jul-20 05:33N 50°42' W 001°59'0 0.0
2016-Jul-20 04:33N 50°42' W 001°59'0 0.0
2016-Jul-20 03:33N 50°42' W 001°59'0 0.0
2016-Jul-20 02:33N 50°42' W 001°59'0 0.0
2016-Jul-20 01:33N 50°42' W 001°59'0 0.0
2016-Jul-20 00:33N 50°42' W 001°59'0 0.0
2016-Jul-19 23:33N 50°42' W 001°59'0 0.0
2016-Jul-19 22:33N 50°42' W 001°59'0 0.0
2016-Jul-19 21:33N 50°42' W 001°59'0 0.0
2016-Jul-19 20:34N 50°42' W 001°59'1312.6
2016-Jul-19 19:34N 50°31' W 001°51'2018.0
2016-Jul-19 18:28N 50°12' W 001°47'33 4.6
2016-Jul-19 11:21N 49°40' W 001°36'1315.9
2016-Jul-19 10:33N 49°52' W 001°39'1818.2
2016-Jul-19 09:33N 50°10' W 001°45'1918.4
2016-Jul-19 08:30N 50°29' W 001°51'1414.5
2016-Jul-19 07:34N 50°42' W 001°58'1 0.3
2016-Jul-19 04:33N 50°42' W 001°59'0 0.0
2016-Jul-19 03:33N 50°42' W 001°59'0 0.0
2016-Jul-19 02:34N 50°42' W 001°59'0 0.0
2016-Jul-19 01:34N 50°42' W 001°59'0 0.0
2016-Jul-19 00:34N 50°42' W 001°59'0 0.0
2016-Jul-18 23:34N 50°42' W 001°59'0 0.0
2016-Jul-18 22:34N 50°42' W 001°59'0 0.0
2016-Jul-18 21:34N 50°42' W 001°59'0 0.0
2016-Jul-18 20:34N 50°42' W 001°59'1211.8
2016-Jul-18 19:34N 50°32' W 001°52'1818.0
2016-Jul-18 18:33N 50°14' W 001°48'1818.0
2016-Jul-18 17:34N 49°56' W 001°43'15 2.3
2016-Jul-18 11:12N 49°42' W 001°40'1218.0
2016-Jul-18 10:33N 49°53' W 001°44'2418.1
2016-Jul-18 09:12N 50°17' W 001°49'1418.5
2016-Jul-18 08:27N 50°31' W 001°52'1213.7
2016-Jul-18 07:33N 50°42' W 001°59'0 0.3
2016-Jul-18 06:33N 50°42' W 001°59'0 0.0
2016-Jul-18 05:33N 50°42' W 001°59'0 0.0
2016-Jul-18 04:33N 50°42' W 001°59'0 0.0
2016-Jul-18 03:33N 50°42' W 001°59'0 0.0
2016-Jul-18 02:33N 50°42' W 001°59'0 0.0
2016-Jul-18 01:33N 50°42' W 001°59'0 0.0
2016-Jul-18 00:33N 50°42' W 001°59'0 0.0
2016-Jul-17 23:33N 50°42' W 001°59'0 0.0
2016-Jul-17 22:33N 50°42' W 001°59'0 0.0
2016-Jul-17 21:33N 50°42' W 001°59'0 0.3
2016-Jul-17 20:33N 50°42' W 001°59'1514.3
2016-Jul-17 19:31N 50°28' W 001°51'1718.0
2016-Jul-17 18:33N 50°11' W 001°48'2017.7
2016-Jul-17 17:25N 49°51' W 001°42'38 4.3
2016-Jul-17 08:24N 50°29' W 001°52'1315.4
2016-Jul-17 07:34N 50°42' W 001°57'  

Dump ship's entire track history